sensor_id;sensor_type;location;lat;lon;timestamp;P1;durP1;ratioP1;P2;durP2;ratioP2
56631;SDS011;42503;39.928;-75.152;2023-08-20T00:03:36;5.35;;;4.63;;
56631;SDS011;42503;39.928;-75.152;2023-08-20T00:13:37;4.10;;;3.60;;
56631;SDS011;42503;39.928;-75.152;2023-08-20T00:23:39;5.85;;;3.88;;
56631;SDS011;42503;39.928;-75.152;2023-08-20T00:33:44;4.40;;;4.00;;
56631;SDS011;42503;39.928;-75.152;2023-08-20T00:43:45;4.72;;;4.15;;
56631;SDS011;42503;39.928;-75.152;2023-08-20T00:53:47;4.55;;;3.95;;
56631;SDS011;42503;39.928;-75.152;2023-08-20T01:03:48;4.38;;;3.92;;
56631;SDS011;42503;39.928;-75.152;2023-08-20T01:13:50;5.28;;;4.07;;
56631;SDS011;42503;39.928;-75.152;2023-08-20T01:34:24;4.00;;;3.55;;
56631;SDS011;42503;39.928;-75.152;2023-08-20T01:44:26;5.28;;;3.70;;
56631;SDS011;42503;39.928;-75.152;2023-08-20T01:54:30;3.85;;;3.45;;
56631;SDS011;42503;39.928;-75.152;2023-08-20T02:04:32;4.78;;;4.07;;
56631;SDS011;42503;39.928;-75.152;2023-08-20T02:14:34;5.03;;;4.00;;
56631;SDS011;42503;39.928;-75.152;2023-08-20T02:24:36;4.38;;;3.97;;
56631;SDS011;42503;39.928;-75.152;2023-08-20T02:34:37;4.35;;;3.95;;
56631;SDS011;42503;39.928;-75.152;2023-08-20T02:44:39;4.10;;;3.70;;
56631;SDS011;42503;39.928;-75.152;2023-08-20T02:54:40;4.25;;;3.85;;
56631;SDS011;42503;39.928;-75.152;2023-08-20T03:04:42;4.10;;;3.70;;
56631;SDS011;42503;39.928;-75.152;2023-08-20T03:14:43;3.83;;;3.45;;
56631;SDS011;42503;39.928;-75.152;2023-08-20T03:24:44;4.07;;;3.63;;
56631;SDS011;42503;39.928;-75.152;2023-08-20T03:35:06;4.82;;;4.22;;
56631;SDS011;42503;39.928;-75.152;2023-08-20T03:45:08;4.57;;;3.58;;
56631;SDS011;42503;39.928;-75.152;2023-08-20T03:55:09;4.70;;;4.05;;
56631;SDS011;42503;39.928;-75.152;2023-08-20T04:05:11;4.22;;;3.72;;
56631;SDS011;42503;39.928;-75.152;2023-08-20T04:15:13;4.13;;;3.72;;
56631;SDS011;42503;39.928;-75.152;2023-08-20T04:25:14;4.32;;;3.83;;
56631;SDS011;42503;39.928;-75.152;2023-08-20T04:35:15;4.68;;;3.70;;
56631;SDS011;42503;39.928;-75.152;2023-08-20T04:45:17;3.90;;;3.55;;
56631;SDS011;42503;39.928;-75.152;2023-08-20T04:55:21;3.78;;;3.38;;
56631;SDS011;42503;39.928;-75.152;2023-08-20T05:05:23;5.03;;;4.50;;
56631;SDS011;42503;39.928;-75.152;2023-08-20T05:15:25;4.80;;;4.30;;
56631;SDS011;42503;39.928;-75.152;2023-08-20T05:25:29;4.65;;;3.95;;
56631;SDS011;42503;39.928;-75.152;2023-08-20T05:35:31;4.80;;;4.15;;
56631;SDS011;42503;39.928;-75.152;2023-08-20T05:45:32;4.75;;;4.15;;
56631;SDS011;42503;39.928;-75.152;2023-08-20T05:55:33;5.30;;;4.47;;
56631;SDS011;42503;39.928;-75.152;2023-08-20T06:05:35;5.03;;;4.53;;
56631;SDS011;42503;39.928;-75.152;2023-08-20T06:15:39;4.72;;;4.32;;
56631;SDS011;42503;39.928;-75.152;2023-08-20T06:25:40;4.68;;;3.97;;
56631;SDS011;42503;39.928;-75.152;2023-08-20T06:35:42;5.18;;;4.68;;
56631;SDS011;42503;39.928;-75.152;2023-08-20T06:45:46;5.03;;;4.45;;
56631;SDS011;42503;39.928;-75.152;2023-08-20T06:55:50;4.82;;;4.28;;
56631;SDS011;42503;39.928;-75.152;2023-08-20T07:05:52;5.00;;;4.47;;
56631;SDS011;42503;39.928;-75.152;2023-08-20T07:15:53;5.60;;;4.97;;
56631;SDS011;42503;39.928;-75.152;2023-08-20T07:26:05;4.82;;;4.32;;
56631;SDS011;42503;39.928;-75.152;2023-08-20T07:36:07;5.00;;;4.50;;
56631;SDS011;42503;39.928;-75.152;2023-08-20T07:46:09;5.50;;;5.00;;
56631;SDS011;42503;39.928;-75.152;2023-08-20T07:56:11;5.47;;;4.90;;
56631;SDS011;42503;39.928;-75.152;2023-08-20T08:06:12;5.47;;;4.72;;
56631;SDS011;42503;39.928;-75.152;2023-08-20T08:16:13;5.72;;;5.10;;
56631;SDS011;42503;39.928;-75.152;2023-08-20T08:26:14;6.15;;;5.28;;
56631;SDS011;42503;39.928;-75.152;2023-08-20T08:36:18;6.50;;;5.78;;
56631;SDS011;42503;39.928;-75.152;2023-08-20T08:46:20;6.22;;;4.97;;
56631;SDS011;42503;39.928;-75.152;2023-08-20T08:56:23;6.70;;;5.47;;
56631;SDS011;42503;39.928;-75.152;2023-08-20T09:06:24;5.95;;;5.15;;
56631;SDS011;42503;39.928;-75.152;2023-08-20T09:16:25;6.43;;;5.00;;
56631;SDS011;42503;39.928;-75.152;2023-08-20T09:26:31;8.17;;;6.03;;
56631;SDS011;42503;39.928;-75.152;2023-08-20T09:36:35;6.57;;;5.88;;
56631;SDS011;42503;39.928;-75.152;2023-08-20T09:46:39;6.60;;;5.65;;
56631;SDS011;42503;39.928;-75.152;2023-08-20T09:56:43;6.68;;;5.97;;
56631;SDS011;42503;39.928;-75.152;2023-08-20T10:06:52;7.10;;;5.80;;
56631;SDS011;42503;39.928;-75.152;2023-08-20T10:16:55;6.05;;;5.45;;
56631;SDS011;42503;39.928;-75.152;2023-08-20T10:27:10;6.00;;;5.32;;
56631;SDS011;42503;39.928;-75.152;2023-08-20T10:37:14;6.18;;;5.40;;
56631;SDS011;42503;39.928;-75.152;2023-08-20T10:47:16;6.75;;;5.53;;
56631;SDS011;42503;39.928;-75.152;2023-08-20T10:57:19;6.18;;;5.57;;
56631;SDS011;42503;39.928;-75.152;2023-08-20T11:07:23;7.32;;;6.18;;
56631;SDS011;42503;39.928;-75.152;2023-08-20T11:17:30;6.57;;;5.70;;
56631;SDS011;42503;39.928;-75.152;2023-08-20T11:27:32;5.72;;;5.18;;
56631;SDS011;42503;39.928;-75.152;2023-08-20T11:37:34;6.43;;;5.60;;
56631;SDS011;42503;39.928;-75.152;2023-08-20T11:47:41;6.03;;;5.47;;
56631;SDS011;42503;39.928;-75.152;2023-08-20T11:57:48;6.15;;;5.55;;
56631;SDS011;42503;39.928;-75.152;2023-08-20T12:07:54;6.57;;;5.68;;
56631;SDS011;42503;39.928;-75.152;2023-08-20T12:17:58;5.87;;;5.27;;
56631;SDS011;42503;39.928;-75.152;2023-08-20T12:28:01;6.45;;;5.75;;
56631;SDS011;42503;39.928;-75.152;2023-08-20T12:38:05;6.28;;;5.28;;
56631;SDS011;42503;39.928;-75.152;2023-08-20T12:48:08;6.35;;;5.63;;
56631;SDS011;42503;39.928;-75.152;2023-08-20T12:58:10;6.38;;;5.63;;
56631;SDS011;42503;39.928;-75.152;2023-08-20T13:08:11;5.57;;;5.07;;
56631;SDS011;42503;39.928;-75.152;2023-08-20T13:18:13;7.95;;;6.00;;
56631;SDS011;42503;39.928;-75.152;2023-08-20T13:28:17;6.53;;;5.75;;
56631;SDS011;42503;39.928;-75.152;2023-08-20T13:38:19;6.28;;;5.68;;
56631;SDS011;42503;39.928;-75.152;2023-08-20T13:48:25;6.43;;;5.70;;
56631;SDS011;42503;39.928;-75.152;2023-08-20T13:58:29;5.70;;;5.15;;
56631;SDS011;42503;39.928;-75.152;2023-08-20T14:08:31;6.18;;;5.30;;
56631;SDS011;42503;39.928;-75.152;2023-08-20T14:18:36;6.78;;;6.07;;
56631;SDS011;42503;39.928;-75.152;2023-08-20T14:28:40;6.18;;;5.35;;
56631;SDS011;42503;39.928;-75.152;2023-08-20T14:38:44;5.97;;;5.35;;
56631;SDS011;42503;39.928;-75.152;2023-08-20T14:48:46;5.70;;;5.00;;
56631;SDS011;42503;39.928;-75.152;2023-08-20T14:58:50;6.60;;;5.82;;
56631;SDS011;42503;39.928;-75.152;2023-08-20T15:08:52;7.65;;;5.78;;
56631;SDS011;42503;39.928;-75.152;2023-08-20T15:18:54;6.13;;;5.50;;
56631;SDS011;42503;39.928;-75.152;2023-08-20T15:28:55;5.72;;;5.07;;
56631;SDS011;42503;39.928;-75.152;2023-08-20T15:39:00;6.50;;;5.80;;
56631;SDS011;42503;39.928;-75.152;2023-08-20T15:49:01;5.88;;;5.20;;
56631;SDS011;42503;39.928;-75.152;2023-08-20T15:59:03;5.95;;;5.30;;
56631;SDS011;42503;39.928;-75.152;2023-08-20T16:09:07;5.97;;;5.38;;
56631;SDS011;42503;39.928;-75.152;2023-08-20T16:19:13;6.82;;;5.47;;
56631;SDS011;42503;39.928;-75.152;2023-08-20T16:29:23;6.00;;;5.40;;
56631;SDS011;42503;39.928;-75.152;2023-08-20T16:39:25;6.18;;;5.57;;
56631;SDS011;42503;39.928;-75.152;2023-08-20T16:49:27;6.40;;;5.75;;
56631;SDS011;42503;39.928;-75.152;2023-08-20T16:59:28;5.88;;;5.28;;
56631;SDS011;42503;39.928;-75.152;2023-08-20T17:09:31;5.88;;;5.28;;
56631;SDS011;42503;39.928;-75.152;2023-08-20T17:19:33;7.20;;;5.85;;
56631;SDS011;42503;39.928;-75.152;2023-08-20T17:29:34;7.05;;;6.25;;
56631;SDS011;42503;39.928;-75.152;2023-08-20T17:39:35;7.07;;;6.38;;
56631;SDS011;42503;39.928;-75.152;2023-08-20T17:49:37;6.82;;;5.80;;
56631;SDS011;42503;39.928;-75.152;2023-08-20T17:59:38;6.32;;;5.70;;
56631;SDS011;42503;39.928;-75.152;2023-08-20T18:09:40;7.05;;;6.35;;
56631;SDS011;42503;39.928;-75.152;2023-08-20T18:19:41;6.70;;;6.10;;
56631;SDS011;42503;39.928;-75.152;2023-08-20T18:29:43;7.13;;;5.88;;
56631;SDS011;42503;39.928;-75.152;2023-08-20T18:39:48;6.68;;;5.95;;
56631;SDS011;42503;39.928;-75.152;2023-08-20T18:49:49;6.97;;;6.28;;
56631;SDS011;42503;39.928;-75.152;2023-08-20T18:59:51;8.30;;;6.97;;
56631;SDS011;42503;39.928;-75.152;2023-08-20T19:09:52;7.15;;;6.18;;
56631;SDS011;42503;39.928;-75.152;2023-08-20T19:19:54;7.57;;;6.60;;
56631;SDS011;42503;39.928;-75.152;2023-08-20T19:29:55;7.03;;;6.32;;
56631;SDS011;42503;39.928;-75.152;2023-08-20T19:39:58;8.15;;;6.45;;
56631;SDS011;42503;39.928;-75.152;2023-08-20T19:50:01;8.07;;;6.60;;
56631;SDS011;42503;39.928;-75.152;2023-08-20T20:00:04;7.43;;;6.55;;
56631;SDS011;42503;39.928;-75.152;2023-08-20T20:10:09;7.88;;;7.07;;
56631;SDS011;42503;39.928;-75.152;2023-08-20T20:20:11;8.10;;;6.93;;
56631;SDS011;42503;39.928;-75.152;2023-08-20T20:30:13;7.45;;;6.68;;
56631;SDS011;42503;39.928;-75.152;2023-08-20T20:40:14;7.72;;;6.93;;
56631;SDS011;42503;39.928;-75.152;2023-08-20T20:50:16;7.97;;;6.95;;
56631;SDS011;42503;39.928;-75.152;2023-08-20T21:00:17;8.02;;;7.00;;
56631;SDS011;42503;39.928;-75.152;2023-08-20T21:10:19;7.80;;;7.03;;
56631;SDS011;42503;39.928;-75.152;2023-08-20T21:20:23;7.82;;;7.03;;
56631;SDS011;42503;39.928;-75.152;2023-08-20T21:30:24;7.75;;;6.95;;
56631;SDS011;42503;39.928;-75.152;2023-08-20T21:40:26;7.97;;;7.18;;
56631;SDS011;42503;39.928;-75.152;2023-08-20T21:50:27;7.90;;;7.10;;
56631;SDS011;42503;39.928;-75.152;2023-08-20T22:00:29;8.43;;;7.32;;
56631;SDS011;42503;39.928;-75.152;2023-08-20T22:10:30;8.10;;;7.30;;
56631;SDS011;42503;39.928;-75.152;2023-08-20T22:20:31;8.30;;;7.50;;
56631;SDS011;42503;39.928;-75.152;2023-08-20T22:30:33;8.23;;;7.43;;
56631;SDS011;42503;39.928;-75.152;2023-08-20T22:40:38;8.80;;;7.90;;
56631;SDS011;42503;39.928;-75.152;2023-08-20T22:50:40;8.20;;;7.35;;
56631;SDS011;42503;39.928;-75.152;2023-08-20T23:00:42;9.05;;;8.05;;
56631;SDS011;42503;39.928;-75.152;2023-08-20T23:10:43;8.73;;;7.43;;
56631;SDS011;42503;39.928;-75.152;2023-08-20T23:20:49;8.27;;;7.35;;
56631;SDS011;42503;39.928;-75.152;2023-08-20T23:31:16;9.00;;;8.10;;
56631;SDS011;42503;39.928;-75.152;2023-08-20T23:41:17;8.48;;;7.50;;
56631;SDS011;42503;39.928;-75.152;2023-08-20T23:51:19;8.43;;;7.53;;
